sensor_id;sensor_type;location;lat;lon;timestamp;pressure;altitude;pressure_sealevel;temperature;humidity
5484;BME280;2764;48.794;8.326;2023-08-24T14:36:04;74589.44;;;-140.34;100.00
5484;BME280;2764;48.794;8.326;2023-08-24T14:37:07;74591.44;;;-140.34;100.00
5484;BME280;2764;48.794;8.326;2023-08-24T14:38:10;74615.56;;;-140.34;100.00
5484;BME280;2764;48.794;8.326;2023-08-24T14:39:13;74607.53;;;-140.34;100.00
5484;BME280;2764;48.794;8.326;2023-08-24T14:40:15;74613.56;;;-140.34;100.00
5484;BME280;2764;48.794;8.326;2023-08-24T14:41:20;74577.38;;;-140.34;100.00
5484;BME280;2764;48.794;8.326;2023-08-24T14:42:23;74561.28;;;-140.34;100.00
5484;BME280;2764;48.794;8.326;2023-08-24T14:43:28;74557.28;;;-140.34;100.00
5484;BME280;2764;48.794;8.326;2023-08-24T14:44:32;74573.34;;;-140.34;100.00
5484;BME280;2764;48.794;8.326;2023-08-24T14:45:36;74573.34;;;-140.34;100.00
5484;BME280;2764;48.794;8.326;2023-08-24T14:46:39;74565.31;;;-140.34;100.00
5484;BME280;2764;48.794;8.326;2023-08-24T14:47:41;74557.28;;;-140.34;100.00
5484;BME280;2764;48.794;8.326;2023-08-24T14:48:49;74553.25;;;-140.34;100.00
5484;BME280;2764;48.794;8.326;2023-08-24T14:49:52;74535.16;;;-140.34;100.00
5484;BME280;2764;48.794;8.326;2023-08-24T14:50:54;74511.06;;;-140.34;100.00
5484;BME280;2764;48.794;8.326;2023-08-24T14:51:57;74494.97;;;-140.34;100.00
5484;BME280;2764;48.794;8.326;2023-08-24T14:52:58;74492.97;;;-140.34;100.00
5484;BME280;2764;48.794;8.326;2023-08-24T14:54:02;74497.00;;;-140.34;100.00
5484;BME280;2764;48.794;8.326;2023-08-24T14:55:18;74505.03;;;-140.34;100.00
5484;BME280;2764;48.794;8.326;2023-08-24T14:56:20;74509.03;;;-140.34;100.00
5484;BME280;2764;48.794;8.326;2023-08-24T14:57:29;74497.00;;;-140.34;100.00
5484;BME280;2764;48.794;8.326;2023-08-24T14:58:32;74494.97;;;-140.34;100.00
5484;BME280;2764;48.794;8.326;2023-08-24T14:59:35;74488.94;;;-140.34;100.00
5484;BME280;2764;48.794;8.326;2023-08-24T15:00:41;74482.91;;;-140.34;100.00
5484;BME280;2764;48.794;8.326;2023-08-24T15:01:46;74484.94;;;-140.34;100.00
5484;BME280;2764;48.794;8.326;2023-08-24T15:02:48;74501.00;;;-140.34;100.00
5484;BME280;2764;48.794;8.326;2023-08-24T15:03:52;74511.06;;;-140.34;100.00
5484;BME280;2764;48.794;8.326;2023-08-24T15:05:11;74501.00;;;-140.34;100.00
5484;BME280;2764;48.794;8.326;2023-08-24T15:06:13;74497.00;;;-140.34;100.00
5484;BME280;2764;48.794;8.326;2023-08-24T15:07:16;74476.91;;;-140.34;100.00
5484;BME280;2764;48.794;8.326;2023-08-24T15:08:21;74456.78;;;-140.34;100.00
5484;BME280;2764;48.794;8.326;2023-08-24T15:09:51;74446.75;;;-140.34;100.00
5484;BME280;2764;48.794;8.326;2023-08-24T15:11:06;74426.66;;;-140.34;100.00
5484;BME280;2764;48.794;8.326;2023-08-24T15:12:12;74416.59;;;-140.34;100.00
5484;BME280;2764;48.794;8.326;2023-08-24T15:13:14;74408.56;;;-140.34;100.00
5484;BME280;2764;48.794;8.326;2023-08-24T15:14:20;74406.56;;;-140.34;100.00
5484;BME280;2764;48.794;8.326;2023-08-24T15:15:24;74406.56;;;-140.34;100.00
5484;BME280;2764;48.794;8.326;2023-08-24T15:16:34;74400.53;;;-140.34;100.00
5484;BME280;2764;48.794;8.326;2023-08-24T15:17:37;74382.44;;;-140.34;100.00
5484;BME280;2764;48.794;8.326;2023-08-24T15:18:40;74368.38;;;-140.34;100.00
5484;BME280;2764;48.794;8.326;2023-08-24T15:19:42;74340.25;;;-140.34;100.00
5484;BME280;2764;48.794;8.326;2023-08-24T15:20:56;74348.28;;;-140.34;100.00
5484;BME280;2764;48.794;8.326;2023-08-24T15:21:59;74344.25;;;-140.34;100.00
5484;BME280;2764;48.794;8.326;2023-08-24T15:23:05;74354.31;;;-140.34;100.00
5484;BME280;2764;48.794;8.326;2023-08-24T15:24:08;74336.22;;;-140.34;100.00
5484;BME280;2764;48.794;8.326;2023-08-24T15:25:10;74316.13;;;-140.34;100.00
5484;BME280;2764;48.794;8.326;2023-08-24T15:26:12;74296.03;;;-140.34;100.00
5484;BME280;2764;48.794;8.326;2023-08-24T15:27:14;74296.03;;;-140.34;100.00
5484;BME280;2764;48.794;8.326;2023-08-24T15:28:15;74288.00;;;-140.34;100.00
5484;BME280;2764;48.794;8.326;2023-08-24T15:29:17;74277.94;;;-140.34;100.00
5484;BME280;2764;48.794;8.326;2023-08-24T15:30:20;74267.91;;;-140.34;100.00
5484;BME280;2764;48.794;8.326;2023-08-24T15:31:21;74263.88;;;-140.34;100.00
5484;BME280;2764;48.794;8.326;2023-08-24T15:32:24;74247.81;;;-140.34;100.00
5484;BME280;2764;48.794;8.326;2023-08-24T15:33:28;74249.81;;;-140.34;100.00
5484;BME280;2764;48.794;8.326;2023-08-24T15:34:30;74245.78;;;-140.34;99.21
5484;BME280;2764;48.794;8.326;2023-08-24T15:35:32;74235.75;;;-140.34;98.84
5484;BME280;2764;48.794;8.326;2023-08-24T15:36:34;74231.72;;;-140.34;100.00
5484;BME280;2764;48.794;8.326;2023-08-24T15:37:37;74225.69;;;-140.34;99.46
5484;BME280;2764;48.794;8.326;2023-08-24T15:38:40;74223.69;;;-140.34;98.26
5484;BME280;2764;48.794;8.326;2023-08-24T15:39:42;74239.75;;;-140.34;100.00
5484;BME280;2764;48.794;8.326;2023-08-24T15:40:52;74243.78;;;-140.34;96.16
5484;BME280;2764;48.794;8.326;2023-08-24T15:41:55;74255.84;;;-140.34;98.35
5484;BME280;2764;48.794;8.326;2023-08-24T15:42:57;74247.81;;;-140.34;97.71
5484;BME280;2764;48.794;8.326;2023-08-24T15:43:58;74249.81;;;-140.34;100.00
5484;BME280;2764;48.794;8.326;2023-08-24T15:45:01;74249.81;;;-140.34;98.31
5484;BME280;2764;48.794;8.326;2023-08-24T15:46:03;74251.81;;;-140.34;98.50
5484;BME280;2764;48.794;8.326;2023-08-24T15:47:05;74269.91;;;-140.34;98.68
5484;BME280;2764;48.794;8.326;2023-08-24T15:48:07;74273.94;;;-140.34;98.78
5484;BME280;2764;48.794;8.326;2023-08-24T15:49:11;74283.97;;;-140.34;100.00
5484;BME280;2764;48.794;8.326;2023-08-24T15:50:13;74290.00;;;-140.34;100.00
5484;BME280;2764;48.794;8.326;2023-08-24T15:51:14;74277.94;;;-140.34;100.00
5484;BME280;2764;48.794;8.326;2023-08-24T15:52:16;74269.91;;;-140.34;100.00
5484;BME280;2764;48.794;8.326;2023-08-24T15:53:20;74275.94;;;-140.34;100.00
5484;BME280;2764;48.794;8.326;2023-08-24T15:54:22;74281.97;;;-140.34;99.36
5484;BME280;2764;48.794;8.326;2023-08-24T15:55:30;74292.00;;;-140.34;100.00
5484;BME280;2764;48.794;8.326;2023-08-24T15:56:32;74292.00;;;-140.34;99.72
5484;BME280;2764;48.794;8.326;2023-08-24T15:57:35;74290.00;;;-140.34;100.00
5484;BME280;2764;48.794;8.326;2023-08-24T15:58:36;74300.03;;;-140.34;97.43
5484;BME280;2764;48.794;8.326;2023-08-24T15:59:38;74292.00;;;-140.34;97.41
5484;BME280;2764;48.794;8.326;2023-08-24T16:00:40;74296.03;;;-140.34;96.95
5484;BME280;2764;48.794;8.326;2023-08-24T16:01:44;74304.06;;;-140.34;98.01
5484;BME280;2764;48.794;8.326;2023-08-24T16:02:46;74314.13;;;-140.34;96.74
5484;BME280;2764;48.794;8.326;2023-08-24T16:03:48;74318.13;;;-140.34;96.35
5484;BME280;2764;48.794;8.326;2023-08-24T16:04:50;74310.09;;;-140.34;98.13
5484;BME280;2764;48.794;8.326;2023-08-24T16:05:56;74314.13;;;-140.34;98.34
5484;BME280;2764;48.794;8.326;2023-08-24T16:07:01;74308.09;;;-140.34;97.48
5484;BME280;2764;48.794;8.326;2023-08-24T16:08:03;74308.09;;;-140.34;97.29
5484;BME280;2764;48.794;8.326;2023-08-24T16:09:06;74296.03;;;-140.34;97.48
5484;BME280;2764;48.794;8.326;2023-08-24T16:10:09;74306.06;;;-140.34;96.22
5484;BME280;2764;48.794;8.326;2023-08-24T16:11:12;74310.09;;;-140.34;97.52
5484;BME280;2764;48.794;8.326;2023-08-24T16:12:15;74300.03;;;-140.34;97.21
5484;BME280;2764;48.794;8.326;2023-08-24T16:13:21;74300.03;;;-140.34;97.41
5484;BME280;2764;48.794;8.326;2023-08-24T16:14:24;74294.03;;;-140.34;97.95
5484;BME280;2764;48.794;8.326;2023-08-24T16:15:26;74283.97;;;-140.34;96.59
5484;BME280;2764;48.794;8.326;2023-08-24T16:16:28;74267.91;;;-140.34;96.84
5484;BME280;2764;48.794;8.326;2023-08-24T16:17:31;74259.84;;;-140.34;95.44
5484;BME280;2764;48.794;8.326;2023-08-24T16:18:35;74255.84;;;-140.34;94.72
5484;BME280;2764;48.794;8.326;2023-08-24T16:19:40;74261.88;;;-140.34;94.10
5484;BME280;2764;48.794;8.326;2023-08-24T16:20:42;74255.84;;;-140.34;94.91
5484;BME280;2764;48.794;8.326;2023-08-24T16:21:43;74253.81;;;-140.34;94.85
5484;BME280;2764;48.794;8.326;2023-08-24T16:22:46;74251.81;;;-140.34;94.69
5484;BME280;2764;48.794;8.326;2023-08-24T16:23:48;74253.81;;;-140.34;93.64
5484;BME280;2764;48.794;8.326;2023-08-24T16:24:49;74257.84;;;-140.34;92.91
5484;BME280;2764;48.794;8.326;2023-08-24T16:25:51;74259.84;;;-140.34;93.42
5484;BME280;2764;48.794;8.326;2023-08-24T16:26:53;74253.81;;;-140.34;93.92
5484;BME280;2764;48.794;8.326;2023-08-24T16:27:54;74247.81;;;-140.34;93.55
5484;BME280;2764;48.794;8.326;2023-08-24T16:28:56;74249.81;;;-140.34;90.54
5484;BME280;2764;48.794;8.326;2023-08-24T16:30:00;74251.81;;;-140.34;89.03
5484;BME280;2764;48.794;8.326;2023-08-24T16:31:02;74245.78;;;-140.34;89.04
5484;BME280;2764;48.794;8.326;2023-08-24T16:32:04;74233.72;;;-140.34;89.15
5484;BME280;2764;48.794;8.326;2023-08-24T16:33:06;74233.72;;;-140.34;90.70
5484;BME280;2764;48.794;8.326;2023-08-24T16:34:08;74231.72;;;-140.34;88.58
5484;BME280;2764;48.794;8.326;2023-08-24T16:35:09;74243.78;;;-140.34;87.91
5484;BME280;2764;48.794;8.326;2023-08-24T16:36:11;74259.84;;;-140.34;87.63
5484;BME280;2764;48.794;8.326;2023-08-24T16:37:13;74257.84;;;-140.34;87.62
5484;BME280;2764;48.794;8.326;2023-08-24T16:38:15;74253.81;;;-140.34;88.54
5484;BME280;2764;48.794;8.326;2023-08-24T16:39:18;74261.88;;;-140.34;89.68
5484;BME280;2764;48.794;8.326;2023-08-24T16:40:19;74259.84;;;-140.34;89.72
5484;BME280;2764;48.794;8.326;2023-08-24T16:41:21;74269.91;;;-140.34;90.36
5484;BME280;2764;48.794;8.326;2023-08-24T16:42:23;74279.94;;;-140.34;90.93
5484;BME280;2764;48.794;8.326;2023-08-24T16:43:25;74283.97;;;-140.34;90.57
5484;BME280;2764;48.794;8.326;2023-08-24T16:44:27;74302.06;;;-140.34;91.28
5484;BME280;2764;48.794;8.326;2023-08-24T16:45:28;74314.13;;;-140.34;92.16
5484;BME280;2764;48.794;8.326;2023-08-24T16:46:30;74320.16;;;-140.34;92.85
5484;BME280;2764;48.794;8.326;2023-08-24T16:47:32;74328.19;;;-140.34;94.16
5484;BME280;2764;48.794;8.326;2023-08-24T16:48:34;74330.19;;;-140.34;93.46
5484;BME280;2764;48.794;8.326;2023-08-24T16:49:36;74336.22;;;-140.34;93.45
5484;BME280;2764;48.794;8.326;2023-08-24T16:50:38;74340.25;;;-140.34;93.69
5484;BME280;2764;48.794;8.326;2023-08-24T16:51:39;74346.28;;;-140.34;94.44
5484;BME280;2764;48.794;8.326;2023-08-24T16:52:41;74364.34;;;-140.34;94.48
5484;BME280;2764;48.794;8.326;2023-08-24T16:53:43;74370.38;;;-140.34;94.78
5484;BME280;2764;48.794;8.326;2023-08-24T16:54:45;74368.38;;;-140.34;94.19
5484;BME280;2764;48.794;8.326;2023-08-24T16:55:53;74380.44;;;-140.34;95.03
5484;BME280;2764;48.794;8.326;2023-08-24T16:56:55;74386.47;;;-140.34;95.60
5484;BME280;2764;48.794;8.326;2023-08-24T16:57:57;74382.44;;;-140.34;96.20
5484;BME280;2764;48.794;8.326;2023-08-24T16:58:58;74376.41;;;-140.34;96.68
5484;BME280;2764;48.794;8.326;2023-08-24T17:00:00;74376.41;;;-140.34;98.41
5484;BME280;2764;48.794;8.326;2023-08-24T17:01:09;74378.41;;;-140.34;96.76
5484;BME280;2764;48.794;8.326;2023-08-24T17:02:13;74378.41;;;-140.34;96.48
5484;BME280;2764;48.794;8.326;2023-08-24T17:03:15;74376.41;;;-140.34;96.21
5484;BME280;2764;48.794;8.326;2023-08-24T17:04:17;74372.41;;;-140.34;96.35
5484;BME280;2764;48.794;8.326;2023-08-24T17:05:19;74368.38;;;-140.34;96.16
5484;BME280;2764;48.794;8.326;2023-08-24T17:06:21;74360.34;;;-140.34;95.49
5484;BME280;2764;48.794;8.326;2023-08-24T17:07:23;74362.34;;;-140.34;93.60
5484;BME280;2764;48.794;8.326;2023-08-24T17:08:25;74360.34;;;-140.34;93.44
5484;BME280;2764;48.794;8.326;2023-08-24T17:09:28;74362.34;;;-140.34;91.87
5484;BME280;2764;48.794;8.326;2023-08-24T17:10:31;74352.28;;;-140.34;92.26
5484;BME280;2764;48.794;8.326;2023-08-24T17:11:33;74348.28;;;-140.34;92.35
5484;BME280;2764;48.794;8.326;2023-08-24T17:12:35;74348.28;;;-140.34;92.79
5484;BME280;2764;48.794;8.326;2023-08-24T17:13:36;74354.31;;;-140.34;93.24
5484;BME280;2764;48.794;8.326;2023-08-24T17:14:38;74364.34;;;-140.34;93.12
5484;BME280;2764;48.794;8.326;2023-08-24T17:15:40;74366.38;;;-140.34;93.02
5484;BME280;2764;48.794;8.326;2023-08-24T17:16:42;74372.41;;;-140.34;93.46
5484;BME280;2764;48.794;8.326;2023-08-24T17:17:44;74382.44;;;-140.34;94.49
5484;BME280;2764;48.794;8.326;2023-08-24T17:18:48;74398.50;;;-140.34;95.09
5484;BME280;2764;48.794;8.326;2023-08-24T17:19:52;74428.66;;;-140.34;96.21
5484;BME280;2764;48.794;8.326;2023-08-24T17:20:54;74464.84;;;-140.34;96.59
5484;BME280;2764;48.794;8.326;2023-08-24T17:21:55;74497.00;;;-140.34;99.48
5484;BME280;2764;48.794;8.326;2023-08-24T17:22:57;74513.06;;;-140.34;100.00
5484;BME280;2764;48.794;8.326;2023-08-24T17:23:59;74519.09;;;-140.34;100.00
5484;BME280;2764;48.794;8.326;2023-08-24T17:25:01;74519.09;;;-140.34;100.00
5484;BME280;2764;48.794;8.326;2023-08-24T17:26:03;74513.06;;;-140.34;100.00
5484;BME280;2764;48.794;8.326;2023-08-24T17:27:05;74509.03;;;-140.34;100.00
5484;BME280;2764;48.794;8.326;2023-08-24T17:28:06;74507.03;;;-140.34;100.00
5484;BME280;2764;48.794;8.326;2023-08-24T17:29:09;74503.03;;;-140.34;99.10
5484;BME280;2764;48.794;8.326;2023-08-24T17:30:11;74503.03;;;-140.34;98.84
5484;BME280;2764;48.794;8.326;2023-08-24T17:31:14;74497.00;;;-140.34;98.75
5484;BME280;2764;48.794;8.326;2023-08-24T17:32:16;74497.00;;;-140.34;97.79
5484;BME280;2764;48.794;8.326;2023-08-24T17:33:18;74488.94;;;-140.34;96.88
5484;BME280;2764;48.794;8.326;2023-08-24T17:34:22;74501.00;;;-140.34;96.16
5484;BME280;2764;48.794;8.326;2023-08-24T17:35:24;74488.94;;;-140.34;95.75
5484;BME280;2764;48.794;8.326;2023-08-24T17:36:26;74482.91;;;-140.34;95.58
5484;BME280;2764;48.794;8.326;2023-08-24T17:37:28;74472.88;;;-140.34;95.12
5484;BME280;2764;48.794;8.326;2023-08-24T17:38:29;74464.84;;;-140.34;95.86
5484;BME280;2764;48.794;8.326;2023-08-24T17:39:33;74460.81;;;-140.34;95.62
5484;BME280;2764;48.794;8.326;2023-08-24T17:40:35;74480.91;;;-140.34;97.35
5484;BME280;2764;48.794;8.326;2023-08-24T17:41:39;74480.91;;;-140.34;96.75
5484;BME280;2764;48.794;8.326;2023-08-24T17:42:42;74492.97;;;-140.34;97.20
5484;BME280;2764;48.794;8.326;2023-08-24T17:43:44;74497.00;;;-140.34;97.70
5484;BME280;2764;48.794;8.326;2023-08-24T17:44:47;74501.00;;;-140.34;99.15
5484;BME280;2764;48.794;8.326;2023-08-24T17:45:49;74494.97;;;-140.34;98.11
5484;BME280;2764;48.794;8.326;2023-08-24T17:46:51;74492.97;;;-140.34;98.60
5484;BME280;2764;48.794;8.326;2023-08-24T17:47:52;74501.00;;;-140.34;98.90
5484;BME280;2764;48.794;8.326;2023-08-24T17:48:55;74507.03;;;-140.34;98.47
5484;BME280;2764;48.794;8.326;2023-08-24T17:49:56;74517.09;;;-140.34;100.00
5484;BME280;2764;48.794;8.326;2023-08-24T17:51:00;74517.09;;;-140.34;100.00
5484;BME280;2764;48.794;8.326;2023-08-24T17:52:07;74529.16;;;-140.34;100.00
5484;BME280;2764;48.794;8.326;2023-08-24T17:53:09;74559.28;;;-140.34;99.68
5484;BME280;2764;48.794;8.326;2023-08-24T17:54:11;74569.34;;;-140.34;99.70
5484;BME280;2764;48.794;8.326;2023-08-24T17:55:14;74575.38;;;-140.34;99.76
5484;BME280;2764;48.794;8.326;2023-08-24T17:56:16;74587.44;;;-140.34;100.00
5484;BME280;2764;48.794;8.326;2023-08-24T17:57:18;74589.44;;;-140.34;100.00
5484;BME280;2764;48.794;8.326;2023-08-24T17:58:21;74593.44;;;-140.34;100.00
5484;BME280;2764;48.794;8.326;2023-08-24T17:59:23;74595.47;;;-140.34;100.00
5484;BME280;2764;48.794;8.326;2023-08-24T18:00:25;74595.47;;;-140.34;100.00
5484;BME280;2764;48.794;8.326;2023-08-24T18:01:27;74587.44;;;-140.34;100.00
5484;BME280;2764;48.794;8.326;2023-08-24T18:02:34;74597.47;;;-140.34;100.00
5484;BME280;2764;48.794;8.326;2023-08-24T18:03:36;74605.50;;;-140.34;98.93
5484;BME280;2764;48.794;8.326;2023-08-24T18:04:38;74609.53;;;-140.34;99.67
5484;BME280;2764;48.794;8.326;2023-08-24T18:05:40;74613.56;;;-140.34;100.00
5484;BME280;2764;48.794;8.326;2023-08-24T18:06:42;74619.56;;;-140.34;100.00
5484;BME280;2764;48.794;8.326;2023-08-24T18:07:44;74643.69;;;-140.34;100.00
5484;BME280;2764;48.794;8.326;2023-08-24T18:08:47;74657.75;;;-140.34;100.00
5484;BME280;2764;48.794;8.326;2023-08-24T18:09:52;74685.91;;;-140.34;100.00
5484;BME280;2764;48.794;8.326;2023-08-24T18:11:02;74740.16;;;-140.34;100.00
5484;BME280;2764;48.794;8.326;2023-08-24T18:12:07;74772.31;;;-140.34;100.00
5484;BME280;2764;48.794;8.326;2023-08-24T18:13:09;74804.47;;;-140.34;100.00
5484;BME280;2764;48.794;8.326;2023-08-24T18:14:11;74832.63;;;-140.34;100.00
5484;BME280;2764;48.794;8.326;2023-08-24T18:15:13;74834.63;;;-140.34;100.00
5484;BME280;2764;48.794;8.326;2023-08-24T18:16:25;74826.59;;;-140.34;100.00
5484;BME280;2764;48.794;8.326;2023-08-24T18:17:27;74826.59;;;-140.34;100.00
5484;BME280;2764;48.794;8.326;2023-08-24T18:18:29;74834.63;;;-140.34;100.00
5484;BME280;2764;48.794;8.326;2023-08-24T18:19:31;74858.75;;;-140.34;100.00
5484;BME280;2764;48.794;8.326;2023-08-24T18:20:34;74878.84;;;-140.34;100.00
5484;BME280;2764;48.794;8.326;2023-08-24T18:21:36;74884.88;;;-140.34;100.00
5484;BME280;2764;48.794;8.326;2023-08-24T18:22:38;74923.06;;;-140.34;100.00
5484;BME280;2764;48.794;8.326;2023-08-24T18:23:40;74967.28;;;-140.34;100.00
5484;BME280;2764;48.794;8.326;2023-08-24T18:24:42;74985.34;;;-140.34;100.00
5484;BME280;2764;48.794;8.326;2023-08-24T18:25:44;74995.41;;;-140.34;100.00
5484;BME280;2764;48.794;8.326;2023-08-24T18:26:47;74999.44;;;-140.34;100.00
5484;BME280;2764;48.794;8.326;2023-08-24T18:27:53;75001.44;;;-140.34;100.00
5484;BME280;2764;48.794;8.326;2023-08-24T18:28:55;74993.41;;;-140.34;100.00
5484;BME280;2764;48.794;8.326;2023-08-24T18:29:57;74985.34;;;-140.34;100.00
5484;BME280;2764;48.794;8.326;2023-08-24T18:31:00;74975.31;;;-140.34;100.00
5484;BME280;2764;48.794;8.326;2023-08-24T18:32:02;74961.25;;;-140.34;100.00
5484;BME280;2764;48.794;8.326;2023-08-24T18:33:04;74967.28;;;-140.34;100.00
5484;BME280;2764;48.794;8.326;2023-08-24T18:34:06;74969.28;;;-140.34;100.00
5484;BME280;2764;48.794;8.326;2023-08-24T18:35:08;74967.28;;;-140.34;100.00
5484;BME280;2764;48.794;8.326;2023-08-24T18:36:12;74951.19;;;-140.34;100.00
5484;BME280;2764;48.794;8.326;2023-08-24T18:37:13;74945.16;;;-140.34;100.00
5484;BME280;2764;48.794;8.326;2023-08-24T18:38:16;74935.13;;;-140.34;100.00
5484;BME280;2764;48.794;8.326;2023-08-24T18:39:17;74931.09;;;-140.34;100.00
5484;BME280;2764;48.794;8.326;2023-08-24T18:40:22;74935.13;;;-140.34;100.00
5484;BME280;2764;48.794;8.326;2023-08-24T18:41:27;74935.13;;;-140.34;100.00
5484;BME280;2764;48.794;8.326;2023-08-24T18:42:29;74937.13;;;-140.34;100.00
5484;BME280;2764;48.794;8.326;2023-08-24T18:43:31;74949.19;;;-140.34;100.00
5484;BME280;2764;48.794;8.326;2023-08-24T18:44:32;74971.28;;;-140.34;100.00
5484;BME280;2764;48.794;8.326;2023-08-24T18:45:34;74977.31;;;-140.34;100.00
5484;BME280;2764;48.794;8.326;2023-08-24T18:46:36;74985.34;;;-140.34;100.00
5484;BME280;2764;48.794;8.326;2023-08-24T18:47:39;74987.38;;;-140.34;100.00
5484;BME280;2764;48.794;8.326;2023-08-24T18:48:41;74983.34;;;-140.34;100.00
5484;BME280;2764;48.794;8.326;2023-08-24T18:49:43;74979.31;;;-140.34;100.00
5484;BME280;2764;48.794;8.326;2023-08-24T18:50:48;74975.31;;;-140.34;100.00
5484;BME280;2764;48.794;8.326;2023-08-24T18:51:53;74969.28;;;-140.34;100.00
5484;BME280;2764;48.794;8.326;2023-08-24T18:52:57;74969.28;;;-140.34;100.00
5484;BME280;2764;48.794;8.326;2023-08-24T18:54:00;74971.28;;;-140.34;100.00
5484;BME280;2764;48.794;8.326;2023-08-24T18:55:02;74961.25;;;-140.34;100.00
5484;BME280;2764;48.794;8.326;2023-08-24T18:56:03;74943.16;;;-140.34;100.00
5484;BME280;2764;48.794;8.326;2023-08-24T18:57:06;74941.16;;;-140.34;100.00
5484;BME280;2764;48.794;8.326;2023-08-24T18:58:08;74943.16;;;-140.34;100.00
5484;BME280;2764;48.794;8.326;2023-08-24T18:59:11;74939.13;;;-140.34;100.00
5484;BME280;2764;48.794;8.326;2023-08-24T19:00:13;74931.09;;;-140.34;100.00
5484;BME280;2764;48.794;8.326;2023-08-24T19:01:15;74927.06;;;-140.34;100.00
5484;BME280;2764;48.794;8.326;2023-08-24T19:02:19;74935.13;;;-140.34;100.00
5484;BME280;2764;48.794;8.326;2023-08-24T19:03:22;74943.16;;;-140.34;100.00
5484;BME280;2764;48.794;8.326;2023-08-24T19:04:25;74949.19;;;-140.34;100.00
5484;BME280;2764;48.794;8.326;2023-08-24T19:05:28;74943.16;;;-140.34;100.00
5484;BME280;2764;48.794;8.326;2023-08-24T19:06:29;74931.09;;;-140.34;100.00
5484;BME280;2764;48.794;8.326;2023-08-24T19:07:46;74923.06;;;-140.34;100.00
5484;BME280;2764;48.794;8.326;2023-08-24T19:08:48;74925.06;;;-140.34;100.00
5484;BME280;2764;48.794;8.326;2023-08-24T19:09:50;74915.00;;;-140.34;100.00
5484;BME280;2764;48.794;8.326;2023-08-24T19:10:54;74915.00;;;-140.34;100.00
5484;BME280;2764;48.794;8.326;2023-08-24T19:11:56;74921.03;;;-140.34;100.00
5484;BME280;2764;48.794;8.326;2023-08-24T19:12:57;74921.03;;;-140.34;100.00
5484;BME280;2764;48.794;8.326;2023-08-24T19:14:00;74915.00;;;-140.34;100.00
5484;BME280;2764;48.794;8.326;2023-08-24T19:15:02;74919.03;;;-140.34;100.00
5484;BME280;2764;48.794;8.326;2023-08-24T19:16:04;74927.06;;;-140.34;100.00
5484;BME280;2764;48.794;8.326;2023-08-24T19:17:07;74911.00;;;-140.34;100.00
5484;BME280;2764;48.794;8.326;2023-08-24T19:18:10;74917.03;;;-140.34;100.00
5484;BME280;2764;48.794;8.326;2023-08-24T19:19:12;74917.03;;;-140.34;100.00
5484;BME280;2764;48.794;8.326;2023-08-24T19:20:16;74915.00;;;-140.34;100.00
5484;BME280;2764;48.794;8.326;2023-08-24T19:21:18;74915.00;;;-140.34;100.00
5484;BME280;2764;48.794;8.326;2023-08-24T19:22:20;74906.97;;;-140.34;100.00
5484;BME280;2764;48.794;8.326;2023-08-24T19:23:22;74915.00;;;-140.34;100.00
5484;BME280;2764;48.794;8.326;2023-08-24T19:24:25;74927.06;;;-140.34;100.00
5484;BME280;2764;48.794;8.326;2023-08-24T19:25:27;74933.09;;;-140.34;100.00
5484;BME280;2764;48.794;8.326;2023-08-24T19:26:30;74931.09;;;-140.34;100.00
5484;BME280;2764;48.794;8.326;2023-08-24T19:27:32;74923.06;;;-140.34;100.00
5484;BME280;2764;48.794;8.326;2023-08-24T19:28:34;74921.03;;;-140.34;100.00
5484;BME280;2764;48.794;8.326;2023-08-24T19:29:35;74919.03;;;-140.34;100.00
5484;BME280;2764;48.794;8.326;2023-08-24T19:30:38;74915.00;;;-140.34;100.00
5484;BME280;2764;48.794;8.326;2023-08-24T19:31:41;74911.00;;;-140.34;100.00
5484;BME280;2764;48.794;8.326;2023-08-24T19:32:42;74896.94;;;-140.34;100.00
5484;BME280;2764;48.794;8.326;2023-08-24T19:33:44;74896.94;;;-140.34;100.00
5484;BME280;2764;48.794;8.326;2023-08-24T19:34:48;74894.91;;;-140.34;100.00
5484;BME280;2764;48.794;8.326;2023-08-24T19:35:50;74892.91;;;-140.34;100.00
5484;BME280;2764;48.794;8.326;2023-08-24T19:36:52;74904.97;;;-140.34;100.00
5484;BME280;2764;48.794;8.326;2023-08-24T19:37:54;74898.94;;;-140.34;100.00
5484;BME280;2764;48.794;8.326;2023-08-24T19:39:00;74904.97;;;-140.34;100.00
5484;BME280;2764;48.794;8.326;2023-08-24T19:40:03;74904.97;;;-140.34;100.00
5484;BME280;2764;48.794;8.326;2023-08-24T19:41:08;74911.00;;;-140.34;100.00
5484;BME280;2764;48.794;8.326;2023-08-24T19:42:10;74915.00;;;-140.34;100.00
5484;BME280;2764;48.794;8.326;2023-08-24T19:43:12;74919.03;;;-140.34;100.00
5484;BME280;2764;48.794;8.326;2023-08-24T19:44:14;74915.00;;;-140.34;100.00
5484;BME280;2764;48.794;8.326;2023-08-24T19:45:16;74919.03;;;-140.34;100.00
5484;BME280;2764;48.794;8.326;2023-08-24T19:46:18;74925.06;;;-140.34;100.00
5484;BME280;2764;48.794;8.326;2023-08-24T19:47:19;74915.00;;;-140.34;100.00
5484;BME280;2764;48.794;8.326;2023-08-24T19:48:21;74923.06;;;-140.34;100.00
5484;BME280;2764;48.794;8.326;2023-08-24T19:49:24;74927.06;;;-140.34;100.00
5484;BME280;2764;48.794;8.326;2023-08-24T19:50:29;74951.19;;;-140.34;100.00
5484;BME280;2764;48.794;8.326;2023-08-24T19:51:31;74937.13;;;-140.34;100.00
5484;BME280;2764;48.794;8.326;2023-08-24T19:52:33;74945.16;;;-140.34;100.00
5484;BME280;2764;48.794;8.326;2023-08-24T19:53:35;74951.19;;;-140.34;100.00
5484;BME280;2764;48.794;8.326;2023-08-24T19:54:37;74957.22;;;-140.34;100.00
5484;BME280;2764;48.794;8.326;2023-08-24T19:55:39;74963.25;;;-140.34;100.00
5484;BME280;2764;48.794;8.326;2023-08-24T19:56:41;74959.22;;;-140.34;100.00
5484;BME280;2764;48.794;8.326;2023-08-24T19:57:45;74953.19;;;-140.34;100.00
5484;BME280;2764;48.794;8.326;2023-08-24T19:58:48;74961.25;;;-140.34;100.00
5484;BME280;2764;48.794;8.326;2023-08-24T19:59:50;74967.28;;;-140.34;100.00
5484;BME280;2764;48.794;8.326;2023-08-24T20:00:53;74975.31;;;-140.34;100.00
5484;BME280;2764;48.794;8.326;2023-08-24T20:01:57;74965.25;;;-140.34;100.00
5484;BME280;2764;48.794;8.326;2023-08-24T20:02:59;74955.22;;;-140.34;100.00
5484;BME280;2764;48.794;8.326;2023-08-24T20:04:01;74951.19;;;-140.34;100.00
5484;BME280;2764;48.794;8.326;2023-08-24T20:05:05;74951.19;;;-140.34;100.00
5484;BME280;2764;48.794;8.326;2023-08-24T20:06:26;74941.16;;;-140.34;100.00